Time;durP1;ratioP1;P1;durP2;ratioP2;P2;SDS_P1;SDS_P2;PMS_P1;PMS_P2;Temp;Humidity;BMP_temperature;BMP_pressure;BME280_temperature;BME280_humidity;BME280_pressure;Samples;Min_cycle;Max_cycle;Signal;HPM_P1;HPM_P2
2022/05/03 00:00:08;;;;;;;13.50;10.52;;;12.90;99.90;;;;;;5095323;28;20044;-65
2022/05/03 00:02:39;;;;;;;14.48;10.95;;;12.80;99.90;;;;;;5094729;28;20024;-65
2022/05/03 00:05:29;;;;;;;12.57;10.15;;;12.80;99.90;;;;;;5095390;28;20039;-63
2022/05/03 00:08:04;;;;;;;13.57;10.23;;;12.80;99.90;;;;;;5095195;28;20357;-63
2022/05/03 00:10:43;;;;;;;13.80;10.32;;;12.80;99.90;;;;;;5095046;28;20379;-64
2022/05/03 00:13:17;;;;;;;15.27;10.57;;;12.80;99.90;;;;;;5077341;28;20016;-64
2022/05/03 00:15:43;;;;;;;11.95;10.05;;;12.80;99.90;;;;;;5094666;28;20043;-64
2022/05/03 00:18:09;;;;;;;12.05;9.48;;;12.90;99.90;;;;;;5095177;28;20418;-63
2022/05/03 00:20:36;;;;;;;13.60;10.30;;;13.00;99.90;;;;;;5094658;28;20035;-63
2022/05/03 00:23:02;;;;;;;12.57;10.00;;;12.90;99.90;;;;;;5094831;28;20051;-64
2022/05/03 00:25:29;;;;;;;13.27;9.27;;;12.90;99.90;;;;;;5094584;28;20027;-64
2022/05/03 00:27:55;;;;;;;11.80;9.50;;;12.80;99.90;;;;;;5094725;28;20479;-64
2022/05/03 00:30:20;;;;;;;13.05;9.60;;;12.70;99.90;;;;;;5095191;28;20051;-64
2022/05/03 00:32:47;;;;;;;13.60;10.90;;;12.60;99.90;;;;;;5094965;28;20380;-64
2022/05/03 00:35:15;;;;;;;11.13;9.52;;;12.60;99.90;;;;;;5094475;28;20023;-64
2022/05/03 00:37:41;;;;;;;12.45;9.20;;;12.60;99.90;;;;;;5095216;28;20062;-65
2022/05/03 00:40:10;;;;;;;11.77;8.77;;;12.50;99.90;;;;;;5095414;28;20077;-64
2022/05/03 00:43:00;;;;;;;10.88;9.45;;;12.50;99.90;;;;;;5094988;28;20480;-65
2022/05/03 00:45:47;;;;;;;12.43;9.52;;;12.40;99.90;;;;;;5094496;28;20115;-64
2022/05/03 00:48:51;;;;;;;10.77;9.18;;;12.30;99.90;;;;;;5093888;28;20056;-64
2022/05/03 00:51:25;;;;;;;13.23;9.93;;;12.30;99.90;;;;;;5079420;28;20531;-64
2022/05/03 00:54:28;;;;;;;13.27;9.25;;;12.30;99.90;;;;;;5094132;28;20031;-64
2022/05/03 00:57:06;;;;;;;13.43;8.93;;;12.30;99.90;;;;;;5090461;28;20481;-62
2022/05/03 01:00:07;;;;;;;13.27;9.45;;;12.30;99.90;;;;;;5094025;28;20070;-64
2022/05/03 01:02:58;;;;;;;10.73;9.32;;;12.20;99.90;;;;;;5093490;28;20024;-63
2022/05/03 01:05:55;;;;;;;11.90;10.13;;;12.10;99.90;;;;;;5093779;28;20031;-63
2022/05/03 01:08:41;;;;;;;11.02;9.13;;;12.20;99.90;;;;;;5093856;28;20032;-64
2022/05/03 01:11:07;;;;;;;13.40;9.95;;;12.10;99.90;;;;;;5093936;28;20485;-64
2022/05/03 01:13:45;;;;;;;12.10;9.10;;;12.20;99.90;;;;;;5093893;28;20058;-64
2022/05/03 01:16:31;;;;;;;12.20;10.10;;;12.20;99.90;;;;;;5094430;28;20032;-65
2022/05/03 01:19:06;;;;;;;11.32;9.60;;;12.10;99.90;;;;;;5094508;28;20016;-63
2022/05/03 01:22:03;;;;;;;16.08;9.30;;;12.10;99.90;;;;;;5093853;28;20024;-64
2022/05/03 01:24:47;;;;;;;12.35;9.85;;;12.00;99.90;;;;;;5093752;28;20063;-66
2022/05/03 01:27:37;;;;;;;12.40;9.15;;;12.00;99.90;;;;;;5093520;28;20023;-64
2022/05/03 01:30:04;;;;;;;13.20;9.25;;;11.90;99.90;;;;;;5093289;28;20545;-64
2022/05/03 01:32:32;;;;;;;13.85;9.48;;;11.90;99.90;;;;;;5093445;28;20483;-64
2022/05/03 01:35:00;;;;;;;12.93;9.80;;;11.90;99.90;;;;;;5093551;28;20480;-63
2022/05/03 01:37:47;;;;;;;16.05;10.07;;;11.80;99.90;;;;;;5093211;28;20019;-64
2022/05/03 01:40:26;;;;;;;14.85;10.27;;;11.90;99.90;;;;;;5074933;28;20031;-64
2022/05/03 01:43:15;;;;;;;11.23;8.52;;;11.80;99.90;;;;;;5093422;28;20028;-65
2022/05/03 01:46:06;;;;;;;12.35;9.95;;;11.80;99.90;;;;;;5055155;28;20040;-64
2022/05/03 01:51:55;;;;;;;10.02;8.80;;;11.80;99.90;;;;;;5093656;28;20067;-64
2022/05/03 01:54:33;;;;;;;17.20;9.50;;;11.80;99.90;;;;;;5093233;28;20498;-64
2022/05/03 01:57:18;;;;;;;12.85;9.63;;;11.80;99.90;;;;;;5093156;28;20038;-65
2022/05/03 02:00:02;;;;;;;11.70;9.02;;;11.70;99.90;;;;;;5093252;28;20408;-63
2022/05/03 02:02:53;;;;;;;14.40;9.77;;;11.70;99.90;;;;;;5093112;28;20024;-64
2022/05/03 02:05:39;;;;;;;11.30;9.40;;;11.70;99.90;;;;;;5093210;28;20027;-63
2022/05/03 02:08:09;;;;;;;11.82;9.02;;;11.70;99.90;;;;;;5093048;28;20060;-63
2022/05/03 02:10:51;;;;;;;12.77;8.50;;;11.70;99.90;;;;;;5093165;28;20115;-64
2022/05/03 02:13:19;;;;;;;16.00;9.20;;;11.70;99.90;;;;;;5093148;28;20016;-64
2022/05/03 02:15:49;;;;;;;11.90;9.05;;;11.60;99.90;;;;;;5078519;28;20093;-63
2022/05/03 02:18:26;;;;;;;11.05;9.35;;;11.50;99.90;;;;;;5097269;28;20020;-63
2022/05/03 02:21:13;;;;;;;10.02;8.85;;;11.50;99.90;;;;;;5097635;28;20029;-63
2022/05/03 02:23:57;;;;;;;15.67;9.93;;;11.40;99.90;;;;;;5097477;28;20028;-63
2022/05/03 02:26:25;;;;;;;10.15;9.13;;;11.50;99.90;;;;;;5096765;28;20174;-64
2022/05/03 02:29:14;;;;;;;10.30;8.57;;;11.50;99.90;;;;;;5097147;28;20016;-63
2022/05/03 02:31:49;;;;;;;11.13;8.70;;;11.40;99.90;;;;;;5096755;28;20021;-63
2022/05/03 02:34:33;;;;;;;11.05;9.18;;;11.50;99.90;;;;;;5078270;28;20020;-63
2022/05/03 02:37:18;;;;;;;11.77;9.05;;;11.50;99.90;;;;;;5096305;28;20028;-63
2022/05/03 02:40:00;;;;;;;12.48;8.88;;;11.50;99.90;;;;;;5096460;28;20118;-64
2022/05/03 02:42:26;;;;;;;10.80;7.93;;;11.70;99.90;;;;;;5078138;28;20111;-64
2022/05/03 02:44:55;;;;;;;12.93;8.77;;;11.60;99.90;;;;;;5078303;28;20035;-64
2022/05/03 02:47:59;;;;;;;11.68;8.82;;;11.70;99.90;;;;;;5096450;28;20120;-64
2022/05/03 02:50:42;;;;;;;10.13;8.55;;;11.60;99.90;;;;;;4998220;28;20033;-64
2022/05/03 02:53:14;;;;;;;12.65;9.55;;;11.50;99.90;;;;;;5091287;28;20085;-64
2022/05/03 02:55:59;;;;;;;13.90;9.00;;;11.40;99.90;;;;;;5096410;28;20020;-64
2022/05/03 02:58:36;;;;;;;10.70;9.60;;;11.40;99.90;;;;;;5096065;28;20044;-64
2022/05/03 03:04:34;;;;;;;11.07;8.75;;;11.30;99.90;;;;;;5096565;28;20070;-64
2022/05/03 03:07:02;;;;;;;12.02;9.30;;;11.20;99.90;;;;;;5095844;28;20024;-64
2022/05/03 03:09:53;;;;;;;14.63;9.40;;;11.20;99.90;;;;;;5096074;28;20491;-64
2022/05/03 03:12:34;;;;;;;13.10;10.45;;;11.20;99.90;;;;;;5096298;28;20036;-64
2022/05/03 03:15:07;;;;;;;12.68;9.43;;;11.10;99.90;;;;;;5095981;28;20028;-64
2022/05/03 03:17:36;;;;;;;12.45;10.77;;;11.20;99.90;;;;;;5095980;28;20386;-63
2022/05/03 03:20:12;;;;;;;10.43;9.23;;;11.20;99.90;;;;;;5095890;28;20103;-64
2022/05/03 03:22:39;;;;;;;11.57;9.40;;;11.10;99.90;;;;;;5077981;28;20496;-64
2022/05/03 03:25:06;;;;;;;14.63;9.77;;;11.10;99.90;;;;;;5095629;28;20408;-63
2022/05/03 03:27:33;;;;;;;11.70;9.48;;;11.10;99.90;;;;;;5095679;28;20024;-63
2022/05/03 03:30:01;;;;;;;12.23;9.13;;;11.10;99.90;;;;;;5095801;28;20016;-64
2022/05/03 03:32:27;;;;;;;12.00;10.18;;;11.10;99.90;;;;;;5096264;28;20023;-63
2022/05/03 03:34:55;;;;;;;14.65;9.98;;;11.10;99.90;;;;;;5077909;28;20085;-64
2022/05/03 03:37:24;;;;;;;10.80;8.77;;;11.10;99.90;;;;;;5096248;28;20363;-64
2022/05/03 03:39:50;;;;;;;12.90;9.48;;;11.10;99.90;;;;;;5095816;28;20111;-64
2022/05/03 03:42:16;;;;;;;12.13;8.43;;;11.00;99.90;;;;;;5095337;28;20499;-64
2022/05/03 03:44:41;;;;;;;11.25;9.23;;;11.00;99.90;;;;;;5095424;28;20024;-63
2022/05/03 03:47:07;;;;;;;11.77;9.53;;;11.00;99.90;;;;;;5095074;28;20096;-63
2022/05/03 03:49:34;;;;;;;11.43;9.33;;;11.00;99.90;;;;;;5076782;28;20308;-63
2022/05/03 03:52:01;;;;;;;15.27;9.48;;;11.00;99.90;;;;;;5095456;28;20077;-63
2022/05/03 03:54:27;;;;;;;11.73;9.57;;;11.00;99.90;;;;;;5095006;28;20484;-64
2022/05/03 03:56:54;;;;;;;11.88;9.00;;;11.00;99.90;;;;;;5094929;28;20028;-64
2022/05/03 03:59:20;;;;;;;11.82;9.00;;;10.90;99.90;;;;;;5094964;28;20085;-64
2022/05/03 04:01:48;;;;;;;12.00;9.57;;;10.90;99.90;;;;;;5094614;28;20478;-63
2022/05/03 04:04:15;;;;;;;11.63;9.23;;;10.90;99.90;;;;;;5094538;28;20020;-63
2022/05/03 04:06:41;;;;;;;11.35;8.85;;;10.90;99.90;;;;;;5094386;28;20028;-63
2022/05/03 04:09:07;;;;;;;11.27;8.40;;;10.90;99.90;;;;;;5094641;28;20099;-63
2022/05/03 04:11:46;;;;;;;12.40;8.80;;;11.00;99.90;;;;;;5094748;28;20028;-63
2022/05/03 04:14:13;;;;;;;12.73;8.80;;;11.00;99.90;;;;;;5095135;28;20464;-65
2022/05/03 04:16:39;;;;;;;10.45;8.55;;;10.90;99.90;;;;;;5094541;28;20118;-66
2022/05/03 04:19:05;;;;;;;14.32;9.38;;;11.00;99.90;;;;;;5094802;28;20086;-65
2022/05/03 04:21:31;;;;;;;13.05;9.50;;;11.00;99.90;;;;;;5094649;28;20031;-64
2022/05/03 04:23:56;;;;;;;11.27;8.50;;;10.90;99.90;;;;;;5094935;28;20028;-64
2022/05/03 04:26:22;;;;;;;11.70;9.00;;;10.80;99.90;;;;;;5094891;28;20032;-62
2022/05/03 04:28:47;;;;;;;10.87;9.10;;;10.90;99.90;;;;;;5094923;28;20691;-64
2022/05/03 04:31:13;;;;;;;10.23;8.40;;;10.80;99.90;;;;;;5095501;28;20032;-62
2022/05/03 04:33:38;;;;;;;11.33;8.97;;;10.80;99.90;;;;;;5095042;28;20035;-63
2022/05/03 04:36:04;;;;;;;11.67;9.13;;;10.80;99.90;;;;;;5094152;28;20060;-62
2022/05/03 04:38:30;;;;;;;12.65;9.73;;;10.80;99.90;;;;;;5095149;28;20067;-63
2022/05/03 04:41:00;;;;;;;10.37;9.10;;;10.70;99.90;;;;;;5094801;28;20113;-64
2022/05/03 04:43:26;;;;;;;11.65;8.98;;;10.70;99.90;;;;;;5094319;28;20057;-64
2022/05/03 04:45:52;;;;;;;11.35;8.45;;;10.70;99.90;;;;;;5094154;28;20034;-63
2022/05/03 04:48:18;;;;;;;10.88;9.05;;;10.70;99.90;;;;;;5094136;28;20027;-65
2022/05/03 04:50:43;;;;;;;15.10;10.20;;;10.80;99.90;;;;;;5093780;28;20020;-64
2022/05/03 04:53:09;;;;;;;13.27;8.83;;;10.80;99.90;;;;;;5093797;28;20039;-64
2022/05/03 04:55:38;;;;;;;11.23;9.07;;;10.90;99.90;;;;;;5093726;28;20016;-64
2022/05/03 04:58:04;;;;;;;13.38;8.60;;;10.90;99.90;;;;;;5094005;28;20031;-64
2022/05/03 05:00:29;;;;;;;11.17;8.83;;;11.00;99.90;;;;;;5093745;28;20024;-64
2022/05/03 05:02:55;;;;;;;9.73;8.17;;;11.00;99.90;;;;;;5094280;28;20059;-65
2022/05/03 05:05:20;;;;;;;11.03;7.97;;;11.00;99.90;;;;;;5094198;28;20677;-62
2022/05/03 05:07:46;;;;;;;13.43;9.40;;;11.10;99.90;;;;;;5093317;28;20452;-63
2022/05/03 05:10:24;;;;;;;13.67;9.63;;;11.10;99.90;;;;;;5093915;28;20029;-64
2022/05/03 05:12:56;;;;;;;11.98;9.68;;;11.20;99.90;;;;;;5093177;28;20024;-63
2022/05/03 05:15:25;;;;;;;11.30;9.13;;;11.10;99.90;;;;;;5093365;28;20027;-61
2022/05/03 05:17:52;;;;;;;13.35;9.40;;;11.20;99.90;;;;;;5092954;28;20027;-60
2022/05/03 05:20:19;;;;;;;11.95;8.88;;;11.20;99.90;;;;;;5093748;28;20092;-60
2022/05/03 05:22:45;;;;;;;11.52;8.45;;;11.20;99.90;;;;;;5093157;28;20028;-61
2022/05/03 05:25:10;;;;;;;10.82;8.07;;;11.20;99.90;;;;;;5093461;28;20032;-61
2022/05/03 05:27:36;;;;;;;13.50;9.33;;;11.30;99.90;;;;;;5074839;28;20024;-62
2022/05/03 05:30:08;;;;;;;11.63;8.93;;;11.40;99.90;;;;;;5093318;28;20016;-60
2022/05/03 05:32:37;;;;;;;10.85;8.95;;;11.40;99.90;;;;;;5093324;28;20024;-60
2022/05/03 05:35:06;;;;;;;10.82;8.68;;;11.40;99.90;;;;;;5092968;28;20495;-63
2022/05/03 05:37:32;;;;;;;9.05;7.50;;;11.50;99.90;;;;;;5093017;28;20082;-67
2022/05/03 05:39:58;;;;;;;12.82;8.80;;;11.50;99.90;;;;;;5093373;28;20036;-65
2022/05/03 05:42:25;;;;;;;10.43;8.32;;;11.50;99.90;;;;;;5093257;28;20032;-62
2022/05/03 05:44:51;;;;;;;10.65;8.25;;;11.50;99.90;;;;;;5075141;28;20024;-64
2022/05/03 05:47:18;;;;;;;11.93;8.77;;;11.50;99.90;;;;;;5092661;28;20099;-63
2022/05/03 05:49:43;;;;;;;;;;;11.50;99.90;;;;;;5093362;28;20028;-64
2022/05/03 05:54:52;;;;;;;10.35;9.15;;;11.50;99.90;;;;;;5092950;28;20022;-64
2022/05/03 05:57:18;;;;;;;12.57;8.57;;;11.60;99.90;;;;;;5074464;28;20036;-66
2022/05/03 05:59:44;;;;;;;11.00;8.50;;;11.70;99.90;;;;;;5093010;28;20031;-65
2022/05/03 06:02:09;;;;;;;11.07;8.53;;;11.70;99.90;;;;;;5093076;28;20038;-63
2022/05/03 06:04:35;;;;;;;10.33;8.27;;;11.80;99.90;;;;;;5093136;28;20492;-62
2022/05/03 06:07:00;;;;;;;9.57;7.83;;;11.90;99.90;;;;;;5092740;28;20040;-62
2022/05/03 06:09:26;;;;;;;12.48;8.18;;;12.00;99.90;;;;;;5074732;28;20020;-61
2022/05/03 06:11:51;;;;;;;11.20;8.23;;;12.00;99.90;;;;;;5092830;28;20109;-61
2022/05/03 06:14:17;;;;;;;9.13;7.47;;;12.00;99.90;;;;;;5093180;28;20281;-59
2022/05/03 06:16:54;;;;;;;10.53;7.67;;;12.00;99.90;;;;;;5093171;28;20047;-62
2022/05/03 06:19:20;;;;;;;;;;;12.10;99.90;;;;;;5093715;28;20039;-66
2022/05/03 06:21:46;;;;;;;9.75;7.38;;;12.20;99.90;;;;;;5093361;28;19904;-65
2022/05/03 06:24:12;;;;;;;12.13;7.78;;;12.30;99.90;;;;;;5093016;28;20114;-66
2022/05/03 06:26:37;;;;;;;14.43;8.02;;;12.30;99.90;;;;;;5092949;28;20043;-62
2022/05/03 06:29:06;;;;;;;10.77;8.20;;;12.40;99.90;;;;;;5093057;28;20031;-64
2022/05/03 06:31:36;;;;;;;9.43;7.97;;;12.40;99.90;;;;;;5092850;28;20020;-64
2022/05/03 06:34:01;;;;;;;10.00;8.10;;;12.50;99.90;;;;;;5092872;28;20024;-62
2022/05/03 06:36:27;;;;;;;11.60;8.90;;;12.50;99.90;;;;;;5093207;28;20073;-63
2022/05/03 06:38:52;;;;;;;11.80;9.13;;;12.70;99.90;;;;;;5093341;28;20036;-63
2022/05/03 06:41:18;;;;;;;11.93;7.80;;;12.70;99.90;;;;;;5092950;28;20027;-63
2022/05/03 06:43:44;;;;;;;10.00;7.50;;;12.80;99.90;;;;;;5092647;28;20469;-64
2022/05/03 06:46:10;;;;;;;14.25;8.50;;;13.00;99.90;;;;;;5092621;28;20024;-62
2022/05/03 06:48:35;;;;;;;11.77;8.00;;;13.00;99.90;;;;;;5074374;28;20020;-64
2022/05/03 06:51:02;;;;;;;10.95;7.85;;;13.10;99.90;;;;;;5092983;28;20111;-63
2022/05/03 06:53:27;;;;;;;13.45;8.57;;;13.20;99.90;;;;;;5092433;28;20028;-63
2022/05/03 06:55:53;;;;;;;9.20;7.63;;;13.30;99.90;;;;;;5092065;28;20122;-62
2022/05/03 06:58:19;;;;;;;11.43;9.05;;;13.40;99.90;;;;;;5092174;28;20100;-59
2022/05/03 07:00:44;;;;;;;9.27;8.18;;;13.50;99.90;;;;;;5094733;28;20337;-66
2022/05/03 07:03:10;;;;;;;12.20;8.10;;;13.60;99.90;;;;;;5096475;28;20377;-65
2022/05/03 07:05:36;;;;;;;10.03;8.20;;;13.70;99.90;;;;;;5096207;28;20365;-66
2022/05/03 07:08:01;;;;;;;9.38;7.95;;;13.80;99.90;;;;;;5095842;28;20308;-65
2022/05/03 07:10:27;;;;;;;10.43;8.27;;;13.90;99.90;;;;;;5077909;28;20024;-63
2022/05/03 07:12:52;;;;;;;13.13;9.43;;;14.00;99.90;;;;;;5096145;28;20031;-64
2022/05/03 07:15:18;;;;;;;11.20;8.60;;;14.10;99.90;;;;;;5096431;28;20035;-64
2022/05/03 07:23:15;;;;;;;11.65;8.38;;;14.40;99.90;;;;;;5096357;28;20035;-65
2022/05/03 07:25:41;;;;;;;9.50;8.30;;;14.70;99.90;;;;;;5096324;28;20163;-63
2022/05/03 07:28:07;;;;;;;10.15;8.00;;;14.90;99.90;;;;;;5097940;28;20032;-62
2022/05/03 07:30:34;;;;;;;9.98;8.50;;;15.10;99.90;;;;;;5098658;28;20020;-63
2022/05/03 07:33:00;;;;;;;10.52;8.60;;;15.50;99.90;;;;;;5096367;28;20020;-62
2022/05/03 07:35:26;;;;;;;10.18;9.07;;;15.80;99.90;;;;;;5095738;28;20521;-61
2022/05/03 07:37:52;;;;;;;10.77;8.57;;;16.10;99.90;;;;;;5095600;28;20028;-64
2022/05/03 07:40:17;;;;;;;11.05;8.57;;;16.20;99.90;;;;;;5095778;28;20099;-62
2022/05/03 07:42:43;;;;;;;12.50;8.63;;;16.40;99.90;;;;;;5096526;28;20111;-62
2022/05/03 07:45:09;;;;;;;12.18;9.40;;;16.60;99.90;;;;;;5097121;28;20042;-62
2022/05/03 07:47:36;;;;;;;11.05;9.85;;;16.70;99.90;;;;;;5096479;28;20500;-62
2022/05/03 07:50:03;;;;;;;9.77;8.50;;;16.70;99.90;;;;;;5095974;28;20020;-62
2022/05/03 07:52:29;;;;;;;11.98;8.32;;;16.80;99.90;;;;;;5095183;28;20093;-62
2022/05/03 07:54:55;;;;;;;10.32;8.38;;;16.90;99.90;;;;;;5095357;28;20461;-62
2022/05/03 07:57:21;;;;;;;;;;;17.10;99.90;;;;;;5095607;28;20028;-64
2022/05/03 07:59:46;;;;;;;10.05;8.10;;;17.30;99.90;;;;;;5095026;28;19927;-62
2022/05/03 08:02:12;;;;;;;9.00;7.97;;;17.30;99.90;;;;;;5095314;28;20024;-62
2022/05/03 08:04:39;;;;;;;9.18;7.80;;;17.50;99.90;;;;;;5094961;28;20134;-60
2022/05/03 08:07:05;;;;;;;9.43;7.53;;;17.80;99.90;;;;;;5094878;28;20058;-63
2022/05/03 08:09:31;;;;;;;13.95;10.63;;;17.80;99.90;;;;;;5095310;28;20476;-63
2022/05/03 08:11:57;;;;;;;12.82;9.88;;;17.90;99.90;;;;;;5095201;28;20107;-62
2022/05/03 08:14:22;;;;;;;8.07;7.28;;;18.20;99.90;;;;;;5094938;28;20526;-61
2022/05/03 08:16:48;;;;;;;8.98;7.28;;;18.50;99.90;;;;;;5094998;28;20484;-63
2022/05/03 08:19:14;;;;;;;8.93;7.30;;;18.60;99.90;;;;;;5094741;28;20028;-62
2022/05/03 08:21:39;;;;;;;9.23;7.32;;;19.10;99.90;;;;;;5094867;28;20039;-62
2022/05/03 08:24:05;;;;;;;8.55;6.05;;;20.90;99.60;;;;;;5094904;28;20031;-61
2022/05/03 08:26:33;;;;;;;11.98;6.78;;;23.20;95.20;;;;;;5094421;28;20028;-63
2022/05/03 08:28:59;;;;;;;10.07;6.20;;;25.20;91.20;;;;;;5095383;28;20099;-64
2022/05/03 08:31:25;;;;;;;7.38;5.88;;;26.80;84.40;;;;;;5095315;28;20020;-63
2022/05/03 08:33:50;;;;;;;6.10;5.50;;;27.50;79.50;;;;;;5095397;28;20520;-63
2022/05/03 08:36:16;;;;;;;6.10;5.50;;;29.40;74.00;;;;;;5095757;28;20039;-62
2022/05/03 08:44:29;;;;;;;5.63;5.13;;;30.70;64.30;;;;;;5013477;28;20431;-65
2022/05/03 08:46:56;;;;;;;6.85;4.40;;;30.10;64.40;;;;;;5012895;28;20038;-64
2022/05/03 08:49:29;;;;;;;7.07;5.80;;;31.30;63.30;;;;;;5012757;28;20096;-61
2022/05/03 08:51:55;;;;;;;6.88;5.15;;;32.30;60.80;;;;;;5013222;28;20038;-63
2022/05/03 08:54:21;;;;;;;6.68;5.10;;;31.80;60.90;;;;;;5012503;28;20495;-62
2022/05/03 08:56:47;;;;;;;8.15;4.97;;;31.40;59.10;;;;;;5012557;28;20081;-63
2022/05/03 08:59:13;;;;;;;5.25;4.75;;;31.60;58.30;;;;;;5012685;28;20048;-63
2022/05/03 09:01:39;;;;;;;5.00;4.60;;;31.80;58.80;;;;;;5011991;28;20084;-61
2022/05/03 09:04:06;;;;;;;4.85;4.35;;;32.80;57.30;;;;;;5012199;28;20034;-62
2022/05/03 09:06:45;;;;;;;5.65;4.40;;;32.40;57.00;;;;;;5011984;28;20034;-64
2022/05/03 09:09:15;;;;;;;5.43;4.30;;;32.80;56.20;;;;;;5012020;28;20522;-62
2022/05/03 09:11:44;;;;;;;4.78;4.38;;;33.20;56.00;;;;;;5011793;28;20084;-61
2022/05/03 09:14:10;;;;;;;4.28;3.88;;;33.00;55.50;;;;;;5011987;28;20030;-63
2022/05/03 09:16:49;;;;;;;5.15;4.28;;;32.20;56.00;;;;;;5011705;28;20029;-64
2022/05/03 09:19:23;;;;;;;5.43;4.15;;;30.40;57.80;;;;;;5081733;28;20032;-63
2022/05/03 09:25:06;;;;;;;8.35;4.43;;;30.30;57.90;;;;;;5013169;28;20053;-60
2022/05/03 09:27:32;;;;;;;4.90;3.60;;;30.80;57.40;;;;;;5086623;28;20044;-63
2022/05/03 09:30:06;;;;;;;4.38;3.97;;;30.10;57.80;;;;;;5094976;28;20058;-63
2022/05/03 09:32:37;;;;;;;5.28;3.97;;;31.20;57.40;;;;;;5094566;28;20384;-62
2022/05/03 09:35:04;;;;;;;8.30;4.80;;;31.20;56.90;;;;;;5076470;28;20053;-63
2022/05/03 09:37:41;;;;;;;6.65;4.60;;;30.30;57.90;;;;;;5095563;28;20113;-64
2022/05/03 09:40:08;;;;;;;6.32;4.50;;;30.00;58.60;;;;;;5094358;28;20028;-64
2022/05/03 09:42:38;;;;;;;5.28;4.13;;;29.50;58.90;;;;;;5075304;28;20024;-61
2022/05/03 09:45:05;;;;;;;8.55;5.20;;;30.10;58.60;;;;;;5093666;28;20078;-62
2022/05/03 09:47:33;;;;;;;7.28;5.38;;;30.20;59.00;;;;;;5093583;28;20035;-64
2022/05/03 09:50:00;;;;;;;6.38;4.78;;;30.40;58.40;;;;;;5093672;28;20023;-62
2022/05/03 09:52:35;;;;;;;4.93;4.45;;;30.00;58.50;;;;;;5075282;28;20028;-64
2022/05/03 09:55:07;;;;;;;7.03;4.25;;;30.50;57.50;;;;;;5093182;28;20073;-64
2022/05/03 09:57:36;;;;;;;6.20;4.97;;;29.90;58.40;;;;;;5093082;28;20099;-64
2022/05/03 10:00:05;;;;;;;5.80;5.30;;;30.70;58.00;;;;;;5074793;28;20024;-64
2022/05/03 10:02:32;;;;;;;7.43;4.78;;;30.80;58.80;;;;;;5074891;28;20028;-65
2022/05/03 10:04:58;;;;;;;7.07;5.00;;;31.90;56.90;;;;;;5092917;28;20536;-65
2022/05/03 10:07:29;;;;;;;4.70;4.30;;;32.50;56.30;;;;;;5092613;28;20035;-63
2022/05/03 10:09:54;;;;;;;6.20;4.38;;;33.10;55.50;;;;;;5093334;28;20392;-61
2022/05/03 10:12:20;;;;;;;6.03;5.10;;;32.50;56.10;;;;;;5092675;28;20049;-63
2022/05/03 10:14:47;;;;;;;5.40;4.88;;;32.70;55.80;;;;;;5092860;28;20024;-63
2022/05/03 10:23:01;;;;;;;4.47;3.92;;;30.60;57.50;;;;;;5093245;28;20288;-62
2022/05/03 10:25:28;;;;;;;7.38;4.15;;;29.30;58.30;;;;;;5093151;28;20103;-62
2022/05/03 10:27:56;;;;;;;5.85;4.38;;;29.10;60.00;;;;;;5092982;28;20020;-63
2022/05/03 10:30:24;;;;;;;6.50;3.67;;;29.00;59.20;;;;;;5093062;28;20020;-64
2022/05/03 10:33:20;;;;;;;4.78;3.67;;;30.10;58.70;;;;;;5093526;28;20095;-64
2022/05/03 10:35:49;;;;;;;7.00;3.33;;;30.80;58.20;;;;;;5096140;28;20047;-64
2022/05/03 10:38:15;;;;;;;3.40;3.00;;;31.90;55.30;;;;;;5097213;28;20032;-65
2022/05/03 10:40:48;;;;;;;3.15;2.88;;;30.20;56.70;;;;;;5096813;28;20083;-64
2022/05/03 10:43:25;;;;;;;4.40;2.78;;;30.00;55.50;;;;;;5096546;28;20069;-63
2022/05/03 10:46:12;;;;;;;3.03;2.75;;;29.60;56.50;;;;;;5096730;28;20077;-65
2022/05/03 10:48:41;;;;;;;3.17;2.78;;;30.80;55.70;;;;;;5096637;28;20028;-64
2022/05/03 10:51:10;;;;;;;3.75;3.00;;;31.70;55.00;;;;;;5096401;28;20016;-65
2022/05/03 10:53:37;;;;;;;2.90;2.60;;;31.30;53.90;;;;;;5096565;28;20016;-65
2022/05/03 10:56:08;;;;;;;3.17;2.88;;;30.90;54.60;;;;;;5096323;28;20469;-65
2022/05/03 10:58:36;;;;;;;3.08;2.80;;;30.40;55.00;;;;;;5096416;28;20073;-65
2022/05/03 11:01:17;;;;;;;4.97;2.78;;;30.30;55.20;;;;;;5096236;28;20480;-65
2022/05/03 11:03:48;;;;;;;4.78;2.67;;;30.80;54.70;;;;;;5096822;28;20028;-66
2022/05/03 11:06:21;;;;;;;2.80;2.60;;;29.70;55.70;;;;;;5077846;28;20074;-67
2022/05/03 11:09:02;;;;;;;3.22;2.83;;;28.70;56.40;;;;;;5096265;28;20016;-66
2022/05/03 11:11:42;;;;;;;2.95;2.67;;;26.90;58.10;;;;;;5077983;28;20024;-67
2022/05/03 11:14:16;;;;;;;3.20;2.60;;;25.40;59.30;;;;;;5096313;28;20093;-64
2022/05/03 11:16:50;;;;;;;3.72;3.03;;;24.60;61.50;;;;;;5077574;28;20115;-65
2022/05/03 11:19:23;;;;;;;3.67;3.00;;;23.80;64.40;;;;;;5096305;28;20016;-64
2022/05/03 11:21:49;;;;;;;3.13;2.83;;;23.70;65.30;;;;;;5096230;28;20043;-63
2022/05/03 11:24:23;;;;;;;5.82;2.85;;;23.40;65.80;;;;;;5095777;28;20089;-64
2022/05/03 11:26:51;;;;;;;5.10;3.63;;;23.60;65.70;;;;;;5096034;28;20421;-64
2022/05/03 11:29:17;;;;;;;6.65;3.63;;;23.60;65.90;;;;;;5096194;28;20097;-63
2022/05/03 11:31:47;;;;;;;6.28;3.67;;;23.00;66.40;;;;;;5096065;28;20093;-63
2022/05/03 11:34:13;;;;;;;3.33;2.70;;;22.80;67.70;;;;;;5095682;28;20024;-63
2022/05/03 11:36:42;;;;;;;4.00;2.75;;;22.60;66.90;;;;;;5095433;28;20150;-63
2022/05/03 11:39:09;;;;;;;3.33;3.00;;;22.60;67.60;;;;;;5095537;28;20037;-64
2022/05/03 11:41:36;;;;;;;3.10;2.70;;;22.50;66.50;;;;;;5077035;28;20131;-64
2022/05/03 11:44:02;;;;;;;6.05;3.10;;;22.60;66.30;;;;;;5095515;28;20024;-64
2022/05/03 11:46:28;;;;;;;4.15;3.10;;;22.60;66.60;;;;;;5095068;28;20024;-64
2022/05/03 11:49:01;;;;;;;3.78;3.08;;;22.50;67.60;;;;;;5095614;28;20051;-63
2022/05/03 11:57:08;;;;;;;3.25;2.88;;;22.10;67.30;;;;;;5095611;28;20042;-64
2022/05/03 11:59:34;;;;;;;4.22;2.63;;;22.20;67.50;;;;;;5095712;28;20032;-64
2022/05/03 12:02:20;;;;;;;6.55;4.45;;;22.30;67.10;;;;;;5095298;28;20086;-64
2022/05/03 12:05:04;;;;;;;4.30;3.63;;;22.40;66.40;;;;;;5095196;28;20036;-65
2022/05/03 12:07:54;;;;;;;3.40;2.50;;;22.30;66.60;;;;;;5076824;28;20489;-64
2022/05/03 12:10:28;;;;;;;6.03;3.45;;;22.30;67.20;;;;;;5095495;28;20085;-63
2022/05/03 12:13:14;;;;;;;3.92;3.08;;;22.30;67.20;;;;;;5095266;28;20101;-65
2022/05/03 12:15:39;;;;;;;6.15;4.07;;;22.50;66.10;;;;;;5094819;28;20095;-67
2022/05/03 12:18:13;;;;;;;3.53;3.05;;;22.40;66.60;;;;;;5090932;22;20113;-66
2022/05/03 12:20:52;;;;;;;6.10;4.05;;;22.40;66.50;;;;;;5094940;28;20031;-66
2022/05/03 12:23:23;;;;;;;3.72;2.63;;;22.30;66.00;;;;;;5094825;28;20012;-66
2022/05/03 12:25:51;;;;;;;4.55;2.83;;;22.20;66.50;;;;;;5094890;28;20065;-66
2022/05/03 12:28:17;;;;;;;3.58;2.33;;;22.20;65.60;;;;;;5094658;28;20476;-67
2022/05/03 12:30:43;;;;;;;2.95;2.65;;;22.30;64.30;;;;;;5094811;28;20024;-67
2022/05/03 12:33:12;;;;;;;3.17;2.88;;;22.40;62.90;;;;;;5076044;28;20035;-64
2022/05/03 12:35:43;;;;;;;4.15;3.15;;;22.30;64.10;;;;;;5094306;28;20020;-67
2022/05/03 12:38:10;;;;;;;5.90;3.17;;;22.10;64.90;;;;;;5076419;28;20024;-65
2022/05/03 12:41:02;;;;;;;4.93;2.97;;;22.00;65.40;;;;;;5076693;28;20400;-66
2022/05/03 12:43:30;;;;;;;3.17;2.60;;;22.00;64.50;;;;;;5072395;28;20040;-66
2022/05/03 12:46:04;;;;;;;4.18;2.42;;;22.00;64.20;;;;;;5096065;28;20028;-67
2022/05/03 12:48:33;;;;;;;5.18;2.92;;;22.00;64.30;;;;;;5094338;28;20119;-66
2022/05/03 12:51:00;;;;;;;4.85;3.40;;;21.80;65.80;;;;;;5093117;28;20393;-69
2022/05/03 12:53:34;;;;;;;4.68;3.10;;;21.90;66.80;;;;;;5094685;28;20024;-65
2022/05/03 12:58:21;;;;;;;5.15;2.85;;;21.80;66.60;;;;;;5094852;28;20023;-69
2022/05/03 12:58:46;;;;;;;3.58;2.75;;;21.70;65.90;;;;;;5093735;28;20106;-69
2022/05/03 13:01:12;;;;;;;;;;;21.70;66.70;;;;;;5077640;28;20046;-65
2022/05/03 13:03:38;;;;;;;3.58;3.05;;;21.80;68.10;;;;;;5092669;28;20388;-66
2022/05/03 13:06:04;;;;;;;12.52;5.30;;;21.90;67.90;;;;;;5094027;28;20043;-67
2022/05/03 13:08:30;;;;;;;7.80;6.10;;;22.00;71.30;;;;;;5093834;28;20036;-65
2022/05/03 13:10:55;;;;;;;10.38;6.93;;;22.20;72.50;;;;;;5075715;28;20024;-67
2022/05/03 13:13:21;;;;;;;;;;;22.40;73.00;;;;;;5094084;28;20024;-65
2022/05/03 13:15:47;;;;;;;9.60;6.68;;;22.40;73.10;;;;;;5076418;28;19949;-66
2022/05/03 13:18:13;;;;;;;9.15;6.20;;;22.60;73.30;;;;;;5094028;28;20040;-64
2022/05/03 13:20:39;;;;;;;;;;;22.80;73.40;;;;;;5078517;28;20059;-64
2022/05/03 13:23:04;;;;;;;7.85;5.47;;;22.90;72.00;;;;;;5095188;28;19915;-65
2022/05/03 13:25:30;;;;;;;7.50;5.85;;;22.90;71.80;;;;;;5077281;28;20024;-65
2022/05/03 13:27:56;;;;;;;9.70;6.05;;;23.00;71.40;;;;;;5096225;28;20521;-66
2022/05/03 13:30:22;;;;;;;8.57;5.63;;;23.10;71.80;;;;;;5077678;28;20123;-67
2022/05/03 13:32:48;;;;;;;7.88;6.28;;;23.20;71.60;;;;;;5095758;28;20476;-66
2022/05/03 13:35:14;;;;;;;10.73;6.20;;;23.30;71.10;;;;;;5095755;28;20494;-66